sensor_id;sensor_type;location;lat;lon;timestamp;P1;durP1;ratioP1;P2;durP2;ratioP2
62419;SDS011;48460;51.616;5.426;2023-02-15T00:00:51;41.10;;;21.90;;
62419;SDS011;48460;51.616;5.426;2023-02-15T00:03:18;43.58;;;21.08;;
62419;SDS011;48460;51.616;5.426;2023-02-15T00:05:56;43.80;;;20.92;;
62419;SDS011;48460;51.616;5.426;2023-02-15T00:08:23;45.65;;;22.23;;
62419;SDS011;48460;51.616;5.426;2023-02-15T00:10:50;41.00;;;20.73;;
62419;SDS011;48460;51.616;5.426;2023-02-15T00:13:16;39.92;;;20.30;;
62419;SDS011;48460;51.616;5.426;2023-02-15T00:15:42;43.92;;;20.83;;
62419;SDS011;48460;51.616;5.426;2023-02-15T00:18:10;44.35;;;21.13;;
62419;SDS011;48460;51.616;5.426;2023-02-15T00:20:37;45.90;;;21.55;;
62419;SDS011;48460;51.616;5.426;2023-02-15T00:23:11;45.97;;;21.75;;
62419;SDS011;48460;51.616;5.426;2023-02-15T00:25:39;43.67;;;21.15;;
62419;SDS011;48460;51.616;5.426;2023-02-15T00:28:05;46.75;;;20.38;;
62419;SDS011;48460;51.616;5.426;2023-02-15T00:30:32;45.67;;;22.27;;
62419;SDS011;48460;51.616;5.426;2023-02-15T00:32:58;43.65;;;21.20;;
62419;SDS011;48460;51.616;5.426;2023-02-15T00:35:26;49.75;;;23.23;;
62419;SDS011;48460;51.616;5.426;2023-02-15T00:38:01;49.30;;;23.90;;
62419;SDS011;48460;51.616;5.426;2023-02-15T00:40:37;56.67;;;24.42;;
62419;SDS011;48460;51.616;5.426;2023-02-15T00:43:07;50.13;;;22.58;;
62419;SDS011;48460;51.616;5.426;2023-02-15T00:45:34;50.00;;;22.98;;
62419;SDS011;48460;51.616;5.426;2023-02-15T00:48:14;51.53;;;23.87;;
62419;SDS011;48460;51.616;5.426;2023-02-15T00:50:43;46.53;;;22.10;;
62419;SDS011;48460;51.616;5.426;2023-02-15T00:53:17;46.78;;;21.88;;
62419;SDS011;48460;51.616;5.426;2023-02-15T00:55:43;43.67;;;20.33;;
62419;SDS011;48460;51.616;5.426;2023-02-15T00:58:11;41.08;;;20.83;;
62419;SDS011;48460;51.616;5.426;2023-02-15T01:00:39;45.75;;;20.45;;
62419;SDS011;48460;51.616;5.426;2023-02-15T01:03:09;42.78;;;20.73;;
62419;SDS011;48460;51.616;5.426;2023-02-15T01:05:54;42.75;;;20.13;;
62419;SDS011;48460;51.616;5.426;2023-02-15T01:08:29;43.28;;;20.48;;
62419;SDS011;48460;51.616;5.426;2023-02-15T01:10:55;41.78;;;19.45;;
62419;SDS011;48460;51.616;5.426;2023-02-15T01:13:22;42.70;;;20.50;;
62419;SDS011;48460;51.616;5.426;2023-02-15T01:15:53;40.67;;;19.75;;
62419;SDS011;48460;51.616;5.426;2023-02-15T01:18:27;38.08;;;20.23;;
62419;SDS011;48460;51.616;5.426;2023-02-15T01:20:53;39.40;;;19.40;;
62419;SDS011;48460;51.616;5.426;2023-02-15T01:23:21;40.92;;;19.20;;
62419;SDS011;48460;51.616;5.426;2023-02-15T01:26:01;47.00;;;21.25;;
62419;SDS011;48460;51.616;5.426;2023-02-15T01:28:31;38.30;;;18.70;;
62419;SDS011;48460;51.616;5.426;2023-02-15T01:30:57;41.30;;;19.95;;
62419;SDS011;48460;51.616;5.426;2023-02-15T01:33:34;39.70;;;19.83;;
62419;SDS011;48460;51.616;5.426;2023-02-15T01:36:07;47.42;;;20.67;;
62419;SDS011;48460;51.616;5.426;2023-02-15T01:38:34;37.90;;;19.10;;
62419;SDS011;48460;51.616;5.426;2023-02-15T01:41:01;39.97;;;18.88;;
62419;SDS011;48460;51.616;5.426;2023-02-15T01:43:53;40.28;;;19.10;;
62419;SDS011;48460;51.616;5.426;2023-02-15T01:46:22;42.85;;;20.33;;
62419;SDS011;48460;51.616;5.426;2023-02-15T01:48:57;40.25;;;19.02;;
62419;SDS011;48460;51.616;5.426;2023-02-15T01:51:46;40.15;;;19.35;;
62419;SDS011;48460;51.616;5.426;2023-02-15T01:56:49;39.97;;;19.95;;
62419;SDS011;48460;51.616;5.426;2023-02-15T01:59:19;42.05;;;19.95;;
62419;SDS011;48460;51.616;5.426;2023-02-15T02:01:46;47.20;;;21.67;;
62419;SDS011;48460;51.616;5.426;2023-02-15T02:04:25;46.17;;;21.48;;
62419;SDS011;48460;51.616;5.426;2023-02-15T02:06:54;51.05;;;21.70;;
62419;SDS011;48460;51.616;5.426;2023-02-15T02:09:26;47.42;;;20.50;;
62419;SDS011;48460;51.616;5.426;2023-02-15T02:11:53;43.30;;;20.17;;
62419;SDS011;48460;51.616;5.426;2023-02-15T02:14:21;39.78;;;18.73;;
62419;SDS011;48460;51.616;5.426;2023-02-15T02:17:10;40.78;;;19.25;;
62419;SDS011;48460;51.616;5.426;2023-02-15T02:31:39;44.53;;;19.48;;
62419;SDS011;48460;51.616;5.426;2023-02-15T02:34:25;40.50;;;19.30;;
62419;SDS011;48460;51.616;5.426;2023-02-15T02:42:56;43.03;;;20.08;;
62419;SDS011;48460;51.616;5.426;2023-02-15T02:46:07;45.40;;;19.63;;
62419;SDS011;48460;51.616;5.426;2023-02-15T02:48:38;49.30;;;20.15;;
62419;SDS011;48460;51.616;5.426;2023-02-15T02:51:13;43.33;;;19.95;;
62419;SDS011;48460;51.616;5.426;2023-02-15T02:53:49;51.70;;;20.67;;
62419;SDS011;48460;51.616;5.426;2023-02-15T02:59:46;45.47;;;21.17;;
62419;SDS011;48460;51.616;5.426;2023-02-15T03:02:19;47.67;;;20.23;;
62419;SDS011;48460;51.616;5.426;2023-02-15T03:05:05;44.38;;;20.23;;
62419;SDS011;48460;51.616;5.426;2023-02-15T03:07:37;47.90;;;20.77;;
62419;SDS011;48460;51.616;5.426;2023-02-15T03:10:08;50.33;;;21.48;;
62419;SDS011;48460;51.616;5.426;2023-02-15T03:12:42;42.90;;;20.33;;
62419;SDS011;48460;51.616;5.426;2023-02-15T03:18:16;49.13;;;20.52;;
62419;SDS011;48460;51.616;5.426;2023-02-15T03:20:47;46.67;;;19.92;;
62419;SDS011;48460;51.616;5.426;2023-02-15T03:23:32;43.72;;;19.52;;
62419;SDS011;48460;51.616;5.426;2023-02-15T03:26:01;47.15;;;20.13;;
62419;SDS011;48460;51.616;5.426;2023-02-15T03:28:35;45.22;;;20.25;;
62419;SDS011;48460;51.616;5.426;2023-02-15T03:31:06;43.65;;;20.05;;
62419;SDS011;48460;51.616;5.426;2023-02-15T03:33:34;44.13;;;20.30;;
62419;SDS011;48460;51.616;5.426;2023-02-15T03:36:24;39.42;;;19.23;;
62419;SDS011;48460;51.616;5.426;2023-02-15T03:39:02;41.88;;;19.45;;
62419;SDS011;48460;51.616;5.426;2023-02-15T03:41:45;49.55;;;19.88;;
62419;SDS011;48460;51.616;5.426;2023-02-15T03:44:35;41.25;;;20.15;;
62419;SDS011;48460;51.616;5.426;2023-02-15T03:47:19;41.10;;;19.33;;
62419;SDS011;48460;51.616;5.426;2023-02-15T03:52:54;46.85;;;20.27;;
62419;SDS011;48460;51.616;5.426;2023-02-15T03:55:28;48.45;;;20.85;;
62419;SDS011;48460;51.616;5.426;2023-02-15T03:57:58;42.58;;;20.52;;
62419;SDS011;48460;51.616;5.426;2023-02-15T04:00:49;45.75;;;20.33;;
62419;SDS011;48460;51.616;5.426;2023-02-15T04:03:53;46.88;;;20.17;;
62419;SDS011;48460;51.616;5.426;2023-02-15T04:06:39;44.08;;;19.40;;
62419;SDS011;48460;51.616;5.426;2023-02-15T04:09:04;46.47;;;19.38;;
62419;SDS011;48460;51.616;5.426;2023-02-15T04:11:50;43.03;;;19.40;;
62419;SDS011;48460;51.616;5.426;2023-02-15T04:14:20;38.00;;;16.57;;
62419;SDS011;48460;51.616;5.426;2023-02-15T04:17:05;46.53;;;19.35;;
62419;SDS011;48460;51.616;5.426;2023-02-15T04:19:32;46.40;;;21.98;;
62419;SDS011;48460;51.616;5.426;2023-02-15T04:22:21;41.83;;;18.83;;
62419;SDS011;48460;51.616;5.426;2023-02-15T04:25:08;47.17;;;20.15;;
62419;SDS011;48460;51.616;5.426;2023-02-15T04:28:00;48.20;;;20.00;;
62419;SDS011;48460;51.616;5.426;2023-02-15T04:30:26;39.72;;;20.25;;
62419;SDS011;48460;51.616;5.426;2023-02-15T04:32:53;46.75;;;21.60;;
62419;SDS011;48460;51.616;5.426;2023-02-15T04:35:20;49.65;;;21.65;;
62419;SDS011;48460;51.616;5.426;2023-02-15T04:37:48;43.15;;;19.48;;
62419;SDS011;48460;51.616;5.426;2023-02-15T04:40:22;44.03;;;19.77;;
62419;SDS011;48460;51.616;5.426;2023-02-15T04:42:50;41.35;;;19.55;;
62419;SDS011;48460;51.616;5.426;2023-02-15T04:45:17;44.50;;;18.85;;
62419;SDS011;48460;51.616;5.426;2023-02-15T04:47:45;39.88;;;18.38;;
62419;SDS011;48460;51.616;5.426;2023-02-15T04:50:12;38.70;;;18.95;;
62419;SDS011;48460;51.616;5.426;2023-02-15T04:52:38;42.60;;;19.33;;
62419;SDS011;48460;51.616;5.426;2023-02-15T04:55:13;42.90;;;19.45;;
62419;SDS011;48460;51.616;5.426;2023-02-15T04:57:49;47.63;;;19.13;;
62419;SDS011;48460;51.616;5.426;2023-02-15T05:00:19;42.47;;;17.70;;
62419;SDS011;48460;51.616;5.426;2023-02-15T05:02:49;39.72;;;17.60;;
62419;SDS011;48460;51.616;5.426;2023-02-15T05:05:25;40.55;;;19.45;;
62419;SDS011;48460;51.616;5.426;2023-02-15T05:07:51;40.30;;;19.45;;
62419;SDS011;48460;51.616;5.426;2023-02-15T05:10:33;41.08;;;19.20;;
62419;SDS011;48460;51.616;5.426;2023-02-15T05:13:03;42.05;;;19.60;;
62419;SDS011;48460;51.616;5.426;2023-02-15T05:15:33;40.40;;;19.38;;
62419;SDS011;48460;51.616;5.426;2023-02-15T05:18:05;41.70;;;19.80;;
62419;SDS011;48460;51.616;5.426;2023-02-15T05:20:32;43.00;;;19.75;;
62419;SDS011;48460;51.616;5.426;2023-02-15T05:23:06;43.20;;;19.00;;
62419;SDS011;48460;51.616;5.426;2023-02-15T05:25:37;49.03;;;19.50;;
62419;SDS011;48460;51.616;5.426;2023-02-15T05:28:46;39.13;;;18.27;;
62419;SDS011;48460;51.616;5.426;2023-02-15T05:31:18;38.00;;;18.40;;
62419;SDS011;48460;51.616;5.426;2023-02-15T05:33:45;39.40;;;19.15;;
62419;SDS011;48460;51.616;5.426;2023-02-15T05:36:18;41.72;;;19.08;;
62419;SDS011;48460;51.616;5.426;2023-02-15T05:38:45;42.22;;;19.50;;
62419;SDS011;48460;51.616;5.426;2023-02-15T05:41:17;44.90;;;19.38;;
62419;SDS011;48460;51.616;5.426;2023-02-15T05:43:50;42.42;;;19.15;;
62419;SDS011;48460;51.616;5.426;2023-02-15T05:46:17;43.92;;;19.45;;
62419;SDS011;48460;51.616;5.426;2023-02-15T05:48:53;54.80;;;25.30;;
62419;SDS011;48460;51.616;5.426;2023-02-15T05:51:19;43.88;;;20.33;;
62419;SDS011;48460;51.616;5.426;2023-02-15T05:53:48;47.28;;;21.48;;
62419;SDS011;48460;51.616;5.426;2023-02-15T05:56:28;40.88;;;19.15;;
62419;SDS011;48460;51.616;5.426;2023-02-15T05:58:58;44.78;;;19.08;;
62419;SDS011;48460;51.616;5.426;2023-02-15T06:01:24;43.67;;;19.00;;
62419;SDS011;48460;51.616;5.426;2023-02-15T06:03:50;47.65;;;19.27;;
62419;SDS011;48460;51.616;5.426;2023-02-15T06:06:21;41.72;;;18.60;;
62419;SDS011;48460;51.616;5.426;2023-02-15T06:08:50;43.75;;;19.88;;
62419;SDS011;48460;51.616;5.426;2023-02-15T06:11:17;45.72;;;20.77;;
62419;SDS011;48460;51.616;5.426;2023-02-15T06:13:43;49.65;;;19.25;;
62419;SDS011;48460;51.616;5.426;2023-02-15T06:16:12;45.40;;;19.77;;
62419;SDS011;48460;51.616;5.426;2023-02-15T06:18:41;46.08;;;18.88;;
62419;SDS011;48460;51.616;5.426;2023-02-15T06:21:10;44.60;;;19.17;;
62419;SDS011;48460;51.616;5.426;2023-02-15T06:23:41;41.15;;;19.45;;
62419;SDS011;48460;51.616;5.426;2023-02-15T06:26:22;40.60;;;19.70;;
62419;SDS011;48460;51.616;5.426;2023-02-15T06:28:56;46.83;;;19.75;;
62419;SDS011;48460;51.616;5.426;2023-02-15T06:31:22;46.60;;;19.80;;
62419;SDS011;48460;51.616;5.426;2023-02-15T06:33:48;46.13;;;20.85;;
62419;SDS011;48460;51.616;5.426;2023-02-15T06:36:15;43.92;;;20.48;;
62419;SDS011;48460;51.616;5.426;2023-02-15T06:38:44;49.83;;;22.08;;
62419;SDS011;48460;51.616;5.426;2023-02-15T06:41:16;46.03;;;20.08;;
62419;SDS011;48460;51.616;5.426;2023-02-15T06:43:47;49.88;;;21.52;;
62419;SDS011;48460;51.616;5.426;2023-02-15T06:46:20;48.28;;;19.33;;
62419;SDS011;48460;51.616;5.426;2023-02-15T06:48:45;48.78;;;20.40;;
62419;SDS011;48460;51.616;5.426;2023-02-15T06:51:20;47.60;;;20.27;;
62419;SDS011;48460;51.616;5.426;2023-02-15T06:54:05;52.80;;;20.85;;
62419;SDS011;48460;51.616;5.426;2023-02-15T06:56:32;45.95;;;20.52;;
62419;SDS011;48460;51.616;5.426;2023-02-15T06:59:03;47.83;;;19.30;;
62419;SDS011;48460;51.616;5.426;2023-02-15T07:01:36;45.25;;;20.33;;
62419;SDS011;48460;51.616;5.426;2023-02-15T07:04:06;51.22;;;21.05;;
62419;SDS011;48460;51.616;5.426;2023-02-15T07:06:38;48.08;;;21.17;;
62419;SDS011;48460;51.616;5.426;2023-02-15T07:09:05;51.00;;;21.70;;
62419;SDS011;48460;51.616;5.426;2023-02-15T07:11:38;46.53;;;21.02;;
62419;SDS011;48460;51.616;5.426;2023-02-15T07:14:22;47.17;;;21.55;;
62419;SDS011;48460;51.616;5.426;2023-02-15T07:16:51;51.22;;;20.35;;
62419;SDS011;48460;51.616;5.426;2023-02-15T07:19:40;53.28;;;21.52;;
62419;SDS011;48460;51.616;5.426;2023-02-15T07:22:36;46.63;;;21.15;;
62419;SDS011;48460;51.616;5.426;2023-02-15T07:25:07;50.20;;;21.02;;
62419;SDS011;48460;51.616;5.426;2023-02-15T07:27:41;53.05;;;22.27;;
62419;SDS011;48460;51.616;5.426;2023-02-15T07:30:10;52.03;;;22.90;;
62419;SDS011;48460;51.616;5.426;2023-02-15T07:32:38;48.38;;;21.77;;
62419;SDS011;48460;51.616;5.426;2023-02-15T07:35:25;56.45;;;21.85;;
62419;SDS011;48460;51.616;5.426;2023-02-15T07:37:51;47.33;;;21.10;;
62419;SDS011;48460;51.616;5.426;2023-02-15T07:40:18;49.28;;;21.52;;
62419;SDS011;48460;51.616;5.426;2023-02-15T07:42:44;57.78;;;22.30;;
62419;SDS011;48460;51.616;5.426;2023-02-15T07:45:09;53.47;;;23.05;;
62419;SDS011;48460;51.616;5.426;2023-02-15T07:47:37;61.80;;;23.45;;
62419;SDS011;48460;51.616;5.426;2023-02-15T07:50:03;48.55;;;20.70;;
62419;SDS011;48460;51.616;5.426;2023-02-15T07:52:29;58.58;;;23.13;;
62419;SDS011;48460;51.616;5.426;2023-02-15T07:54:57;53.15;;;22.83;;
62419;SDS011;48460;51.616;5.426;2023-02-15T07:57:25;60.85;;;24.70;;
62419;SDS011;48460;51.616;5.426;2023-02-15T07:59:50;52.45;;;23.63;;
62419;SDS011;48460;51.616;5.426;2023-02-15T08:02:16;53.47;;;23.85;;
62419;SDS011;48460;51.616;5.426;2023-02-15T08:04:44;57.55;;;24.33;;
62419;SDS011;48460;51.616;5.426;2023-02-15T08:07:09;56.90;;;25.45;;
62419;SDS011;48460;51.616;5.426;2023-02-15T08:09:42;60.83;;;24.42;;
62419;SDS011;48460;51.616;5.426;2023-02-15T08:12:10;59.95;;;26.88;;
62419;SDS011;48460;51.616;5.426;2023-02-15T08:14:36;61.00;;;25.25;;
62419;SDS011;48460;51.616;5.426;2023-02-15T08:17:01;60.88;;;24.88;;
62419;SDS011;48460;51.616;5.426;2023-02-15T08:19:30;53.38;;;23.73;;
62419;SDS011;48460;51.616;5.426;2023-02-15T08:21:58;57.20;;;24.27;;
62419;SDS011;48460;51.616;5.426;2023-02-15T08:24:26;52.92;;;24.67;;
62419;SDS011;48460;51.616;5.426;2023-02-15T08:26:53;56.30;;;24.55;;
62419;SDS011;48460;51.616;5.426;2023-02-15T08:29:21;59.97;;;24.73;;
62419;SDS011;48460;51.616;5.426;2023-02-15T08:31:49;57.97;;;25.27;;
62419;SDS011;48460;51.616;5.426;2023-02-15T08:34:19;60.40;;;25.98;;
62419;SDS011;48460;51.616;5.426;2023-02-15T08:36:46;64.10;;;25.58;;
62419;SDS011;48460;51.616;5.426;2023-02-15T08:39:13;60.60;;;27.83;;
62419;SDS011;48460;51.616;5.426;2023-02-15T08:41:43;56.70;;;24.15;;
62419;SDS011;48460;51.616;5.426;2023-02-15T08:44:10;54.60;;;25.63;;
62419;SDS011;48460;51.616;5.426;2023-02-15T08:46:38;51.72;;;23.48;;
62419;SDS011;48460;51.616;5.426;2023-02-15T08:49:06;54.85;;;24.23;;
62419;SDS011;48460;51.616;5.426;2023-02-15T08:51:34;53.33;;;25.60;;
62419;SDS011;48460;51.616;5.426;2023-02-15T08:54:01;52.90;;;24.67;;
62419;SDS011;48460;51.616;5.426;2023-02-15T08:56:31;49.75;;;23.52;;
62419;SDS011;48460;51.616;5.426;2023-02-15T08:58:58;54.47;;;24.88;;
62419;SDS011;48460;51.616;5.426;2023-02-15T09:01:28;50.08;;;23.35;;
62419;SDS011;48460;51.616;5.426;2023-02-15T09:03:59;49.78;;;23.70;;
62419;SDS011;48460;51.616;5.426;2023-02-15T09:06:30;48.88;;;23.75;;
62419;SDS011;48460;51.616;5.426;2023-02-15T09:08:56;48.13;;;24.05;;
62419;SDS011;48460;51.616;5.426;2023-02-15T09:11:26;49.88;;;24.10;;
62419;SDS011;48460;51.616;5.426;2023-02-15T09:13:54;50.20;;;25.30;;
62419;SDS011;48460;51.616;5.426;2023-02-15T09:16:21;51.10;;;24.27;;
62419;SDS011;48460;51.616;5.426;2023-02-15T09:18:49;48.03;;;23.60;;
62419;SDS011;48460;51.616;5.426;2023-02-15T09:21:21;46.55;;;23.60;;
62419;SDS011;48460;51.616;5.426;2023-02-15T09:23:49;55.25;;;25.77;;
62419;SDS011;48460;51.616;5.426;2023-02-15T09:26:17;49.50;;;24.20;;
62419;SDS011;48460;51.616;5.426;2023-02-15T09:28:44;50.55;;;25.55;;
62419;SDS011;48460;51.616;5.426;2023-02-15T09:33:41;50.58;;;25.50;;
62419;SDS011;48460;51.616;5.426;2023-02-15T09:36:15;48.38;;;25.10;;
62419;SDS011;48460;51.616;5.426;2023-02-15T09:38:46;48.97;;;24.70;;
62419;SDS011;48460;51.616;5.426;2023-02-15T09:47:28;54.78;;;25.73;;
62419;SDS011;48460;51.616;5.426;2023-02-15T09:53:12;50.85;;;24.98;;
62419;SDS011;48460;51.616;5.426;2023-02-15T09:56:17;50.55;;;25.92;;
62419;SDS011;48460;51.616;5.426;2023-02-15T09:59:02;43.85;;;22.95;;
62419;SDS011;48460;51.616;5.426;2023-02-15T10:04:25;57.97;;;24.35;;
62419;SDS011;48460;51.616;5.426;2023-02-15T10:10:11;47.22;;;23.75;;
62419;SDS011;48460;51.616;5.426;2023-02-15T10:12:57;46.65;;;23.70;;
62419;SDS011;48460;51.616;5.426;2023-02-15T10:21:24;47.92;;;24.20;;
62419;SDS011;48460;51.616;5.426;2023-02-15T10:32:04;48.28;;;24.38;;
62419;SDS011;48460;51.616;5.426;2023-02-15T10:49:02;49.00;;;21.73;;
62419;SDS011;48460;51.616;5.426;2023-02-15T10:52:05;49.83;;;22.23;;
62419;SDS011;48460;51.616;5.426;2023-02-15T10:54:45;46.58;;;22.63;;
62419;SDS011;48460;51.616;5.426;2023-02-15T10:57:34;46.20;;;23.13;;
62419;SDS011;48460;51.616;5.426;2023-02-15T11:00:23;45.25;;;21.63;;
62419;SDS011;48460;51.616;5.426;2023-02-15T11:06:09;44.85;;;22.20;;
62419;SDS011;48460;51.616;5.426;2023-02-15T11:08:37;46.13;;;22.23;;
62419;SDS011;48460;51.616;5.426;2023-02-15T11:11:08;45.10;;;22.50;;
62419;SDS011;48460;51.616;5.426;2023-02-15T11:13:41;43.05;;;21.23;;
62419;SDS011;48460;51.616;5.426;2023-02-15T11:16:14;46.33;;;22.05;;
62419;SDS011;48460;51.616;5.426;2023-02-15T11:21:51;44.75;;;21.45;;
62419;SDS011;48460;51.616;5.426;2023-02-15T11:24:26;50.35;;;22.70;;
62419;SDS011;48460;51.616;5.426;2023-02-15T11:29:40;44.30;;;22.45;;
62419;SDS011;48460;51.616;5.426;2023-02-15T11:32:18;46.08;;;23.13;;
62419;SDS011;48460;51.616;5.426;2023-02-15T11:34:56;50.30;;;23.17;;
62419;SDS011;48460;51.616;5.426;2023-02-15T11:37:29;44.83;;;21.05;;
62419;SDS011;48460;51.616;5.426;2023-02-15T11:40:01;48.17;;;23.55;;
62419;SDS011;48460;51.616;5.426;2023-02-15T11:42:31;43.08;;;21.65;;
62419;SDS011;48460;51.616;5.426;2023-02-15T11:48:09;48.13;;;21.63;;
62419;SDS011;48460;51.616;5.426;2023-02-15T11:50:41;38.15;;;20.50;;
62419;SDS011;48460;51.616;5.426;2023-02-15T11:53:18;44.75;;;21.58;;
62419;SDS011;48460;51.616;5.426;2023-02-15T11:55:47;47.90;;;21.77;;
62419;SDS011;48460;51.616;5.426;2023-02-15T12:03:58;41.22;;;21.08;;
62419;SDS011;48460;51.616;5.426;2023-02-15T12:09:59;44.50;;;22.05;;
62419;SDS011;48460;51.616;5.426;2023-02-15T12:12:33;45.55;;;21.67;;
62419;SDS011;48460;51.616;5.426;2023-02-15T12:15:07;44.47;;;22.25;;
62419;SDS011;48460;51.616;5.426;2023-02-15T12:17:50;42.33;;;21.92;;
62419;SDS011;48460;51.616;5.426;2023-02-15T12:20:22;46.70;;;22.17;;
62419;SDS011;48460;51.616;5.426;2023-02-15T12:23:03;45.17;;;22.85;;
62419;SDS011;48460;51.616;5.426;2023-02-15T12:28:35;44.75;;;23.17;;
62419;SDS011;48460;51.616;5.426;2023-02-15T12:37:19;43.70;;;22.23;;
62419;SDS011;48460;51.616;5.426;2023-02-15T12:39:57;42.05;;;22.77;;
62419;SDS011;48460;51.616;5.426;2023-02-15T12:42:25;42.85;;;22.80;;
62419;SDS011;48460;51.616;5.426;2023-02-15T12:45:27;46.53;;;23.42;;
62419;SDS011;48460;51.616;5.426;2023-02-15T12:48:07;44.20;;;22.40;;
62419;SDS011;48460;51.616;5.426;2023-02-15T12:50:48;43.50;;;22.77;;
62419;SDS011;48460;51.616;5.426;2023-02-15T12:56:20;44.47;;;22.33;;
62419;SDS011;48460;51.616;5.426;2023-02-15T12:59:04;48.13;;;23.58;;
62419;SDS011;48460;51.616;5.426;2023-02-15T13:01:31;47.97;;;22.83;;
62419;SDS011;48460;51.616;5.426;2023-02-15T13:03:59;47.60;;;23.35;;
62419;SDS011;48460;51.616;5.426;2023-02-15T13:06:31;47.63;;;24.20;;
62419;SDS011;48460;51.616;5.426;2023-02-15T13:09:11;45.70;;;23.20;;
62419;SDS011;48460;51.616;5.426;2023-02-15T13:11:41;49.55;;;24.92;;
62419;SDS011;48460;51.616;5.426;2023-02-15T13:14:25;44.88;;;22.35;;
62419;SDS011;48460;51.616;5.426;2023-02-15T13:16:57;53.75;;;24.42;;
62419;SDS011;48460;51.616;5.426;2023-02-15T13:19:31;43.50;;;22.15;;
62419;SDS011;48460;51.616;5.426;2023-02-15T13:22:25;47.13;;;23.20;;
62419;SDS011;48460;51.616;5.426;2023-02-15T13:24:57;49.88;;;24.90;;
62419;SDS011;48460;51.616;5.426;2023-02-15T13:27:31;47.58;;;23.67;;
62419;SDS011;48460;51.616;5.426;2023-02-15T13:30:25;46.45;;;24.23;;
62419;SDS011;48460;51.616;5.426;2023-02-15T13:32:52;51.80;;;23.90;;
62419;SDS011;48460;51.616;5.426;2023-02-15T13:35:21;49.30;;;23.85;;
62419;SDS011;48460;51.616;5.426;2023-02-15T13:40:29;44.33;;;23.35;;
62419;SDS011;48460;51.616;5.426;2023-02-15T13:45:41;56.95;;;25.73;;
62419;SDS011;48460;51.616;5.426;2023-02-15T13:48:32;51.22;;;24.50;;
62419;SDS011;48460;51.616;5.426;2023-02-15T13:53:36;44.70;;;22.45;;
62419;SDS011;48460;51.616;5.426;2023-02-15T13:56:27;48.45;;;24.95;;
62419;SDS011;48460;51.616;5.426;2023-02-15T13:59:14;52.72;;;24.67;;
62419;SDS011;48460;51.616;5.426;2023-02-15T14:21:57;51.50;;;24.58;;
62419;SDS011;48460;51.616;5.426;2023-02-15T14:27:24;44.85;;;23.23;;
62419;SDS011;48460;51.616;5.426;2023-02-15T14:30:00;47.90;;;23.50;;
62419;SDS011;48460;51.616;5.426;2023-02-15T14:32:29;47.35;;;23.70;;
62419;SDS011;48460;51.616;5.426;2023-02-15T14:35:04;47.65;;;23.08;;
62419;SDS011;48460;51.616;5.426;2023-02-15T14:40:36;49.20;;;22.75;;
62419;SDS011;48460;51.616;5.426;2023-02-15T14:49:02;51.58;;;23.55;;
62419;SDS011;48460;51.616;5.426;2023-02-15T14:57:20;51.42;;;23.52;;
62419;SDS011;48460;51.616;5.426;2023-02-15T15:02:20;50.63;;;23.55;;
62419;SDS011;48460;51.616;5.426;2023-02-15T15:05:08;52.17;;;23.95;;
62419;SDS011;48460;51.616;5.426;2023-02-15T15:07:48;49.60;;;24.10;;
62419;SDS011;48460;51.616;5.426;2023-02-15T15:12:49;54.75;;;24.42;;
62419;SDS011;48460;51.616;5.426;2023-02-15T15:18:02;53.13;;;24.55;;
62419;SDS011;48460;51.616;5.426;2023-02-15T15:20:43;48.25;;;23.63;;
62419;SDS011;48460;51.616;5.426;2023-02-15T15:25:41;50.92;;;24.50;;
62419;SDS011;48460;51.616;5.426;2023-02-15T15:36:52;50.40;;;23.67;;
62419;SDS011;48460;51.616;5.426;2023-02-15T15:45:53;51.40;;;23.95;;
62419;SDS011;48460;51.616;5.426;2023-02-15T15:48:33;52.92;;;26.20;;
62419;SDS011;48460;51.616;5.426;2023-02-15T15:51:11;53.20;;;24.25;;
62419;SDS011;48460;51.616;5.426;2023-02-15T15:53:44;49.70;;;24.77;;
62419;SDS011;48460;51.616;5.426;2023-02-15T15:56:15;52.03;;;23.85;;
62419;SDS011;48460;51.616;5.426;2023-02-15T15:58:48;53.42;;;24.60;;
62419;SDS011;48460;51.616;5.426;2023-02-15T16:01:23;50.58;;;23.60;;
62419;SDS011;48460;51.616;5.426;2023-02-15T16:03:56;52.63;;;25.33;;
62419;SDS011;48460;51.616;5.426;2023-02-15T16:09:10;56.63;;;24.77;;
62419;SDS011;48460;51.616;5.426;2023-02-15T16:11:35;49.90;;;24.13;;
62419;SDS011;48460;51.616;5.426;2023-02-15T16:14:08;51.08;;;24.45;;
62419;SDS011;48460;51.616;5.426;2023-02-15T16:16:40;54.33;;;23.45;;
62419;SDS011;48460;51.616;5.426;2023-02-15T16:19:17;46.08;;;23.40;;
62419;SDS011;48460;51.616;5.426;2023-02-15T16:21:46;50.72;;;24.05;;
62419;SDS011;48460;51.616;5.426;2023-02-15T16:27:19;51.03;;;25.63;;
62419;SDS011;48460;51.616;5.426;2023-02-15T16:29:53;60.45;;;26.10;;
62419;SDS011;48460;51.616;5.426;2023-02-15T16:32:23;55.33;;;26.20;;
62419;SDS011;48460;51.616;5.426;2023-02-15T16:34:54;49.25;;;24.73;;
62419;SDS011;48460;51.616;5.426;2023-02-15T16:37:38;53.53;;;24.27;;
62419;SDS011;48460;51.616;5.426;2023-02-15T16:40:04;55.50;;;25.83;;
62419;SDS011;48460;51.616;5.426;2023-02-15T16:42:30;52.53;;;25.05;;
62419;SDS011;48460;51.616;5.426;2023-02-15T16:45:05;51.72;;;24.55;;
62419;SDS011;48460;51.616;5.426;2023-02-15T16:47:43;53.30;;;24.98;;
62419;SDS011;48460;51.616;5.426;2023-02-15T16:50:19;51.25;;;24.83;;
62419;SDS011;48460;51.616;5.426;2023-02-15T16:52:51;54.10;;;24.60;;
62419;SDS011;48460;51.616;5.426;2023-02-15T16:55:22;57.08;;;25.92;;
62419;SDS011;48460;51.616;5.426;2023-02-15T16:57:56;53.15;;;24.75;;
62419;SDS011;48460;51.616;5.426;2023-02-15T17:00:31;48.92;;;23.80;;
62419;SDS011;48460;51.616;5.426;2023-02-15T17:05:52;53.60;;;23.77;;
62419;SDS011;48460;51.616;5.426;2023-02-15T17:08:42;49.85;;;24.73;;
62419;SDS011;48460;51.616;5.426;2023-02-15T17:16:49;58.22;;;25.20;;
62419;SDS011;48460;51.616;5.426;2023-02-15T17:21:48;49.03;;;23.77;;
62419;SDS011;48460;51.616;5.426;2023-02-15T17:27:14;54.95;;;24.10;;
62419;SDS011;48460;51.616;5.426;2023-02-15T17:29:50;51.72;;;23.67;;
62419;SDS011;48460;51.616;5.426;2023-02-15T17:32:27;54.95;;;24.70;;
62419;SDS011;48460;51.616;5.426;2023-02-15T17:35:20;55.65;;;24.23;;
62419;SDS011;48460;51.616;5.426;2023-02-15T17:37:49;62.83;;;25.70;;
62419;SDS011;48460;51.616;5.426;2023-02-15T17:43:10;54.05;;;23.50;;
62419;SDS011;48460;51.616;5.426;2023-02-15T17:45:42;52.20;;;24.63;;
62419;SDS011;48460;51.616;5.426;2023-02-15T17:48:22;57.47;;;24.88;;
62419;SDS011;48460;51.616;5.426;2023-02-15T17:51:11;53.03;;;23.60;;
62419;SDS011;48460;51.616;5.426;2023-02-15T17:53:38;53.40;;;24.55;;
62419;SDS011;48460;51.616;5.426;2023-02-15T17:56:04;63.78;;;25.45;;
62419;SDS011;48460;51.616;5.426;2023-02-15T17:58:36;53.42;;;25.08;;
62419;SDS011;48460;51.616;5.426;2023-02-15T18:01:11;54.70;;;24.85;;
62419;SDS011;48460;51.616;5.426;2023-02-15T18:04:01;58.03;;;25.33;;
62419;SDS011;48460;51.616;5.426;2023-02-15T18:09:46;62.90;;;26.02;;
62419;SDS011;48460;51.616;5.426;2023-02-15T18:12:31;53.67;;;23.75;;
62419;SDS011;48460;51.616;5.426;2023-02-15T18:15:06;56.10;;;26.15;;
62419;SDS011;48460;51.616;5.426;2023-02-15T18:17:37;61.25;;;26.35;;
62419;SDS011;48460;51.616;5.426;2023-02-15T18:20:38;53.00;;;24.75;;
62419;SDS011;48460;51.616;5.426;2023-02-15T18:23:08;69.47;;;25.95;;